EJA111 YBCS-YBTL
Flight info
| Callsign | EJA111 |
|---|---|
| Flight time | N/A |
| Altitude | 25000 |
| Route | CS V264 IGIKI/N0470F190 V153 TL |
| Aircraft | C750/M-SBDE3FGHRWXY/S |
Departure
| Time | 2026-04-27 11:18 |
|---|---|
| Airport | Cairns International Airport (YBCS) |
Arrival
| Time | N/A |
|---|---|
| Airport | Townsville Airport / RAAF Base Townsville (YBTL) |
| Time | Latitude | Longitude | Altitude | Speed | Heading |
|---|---|---|---|---|---|
| 2026-04-27 10:59 | -16.87361 | 145.75073 | 12 ft | 0 kts | 109° |
| 2026-04-27 11:11 | -16.87361 | 145.75071 | 12 ft | 2 kts | 109° |
| 2026-04-27 11:11 | -16.87355 | 145.75054 | 12 ft | 3 kts | 109° |
| 2026-04-27 11:11 | -16.87349 | 145.75036 | 12 ft | 3 kts | 109° |
| 2026-04-27 11:11 | -16.87341 | 145.75022 | 11 ft | 2 kts | 175° |
| 2026-04-27 11:12 | -16.87327 | 145.75029 | 12 ft | 2 kts | 258° |
| 2026-04-27 11:12 | -16.87327 | 145.75032 | 12 ft | 0 kts | 266° |
| 2026-04-27 11:13 | -16.87326 | 145.74996 | 11 ft | 11 kts | 276° |
| 2026-04-27 11:13 | -16.87288 | 145.74888 | 8 ft | 18 kts | 305° |
| 2026-04-27 11:13 | -16.87187 | 145.74828 | 8 ft | 16 kts | 336° |
| 2026-04-27 11:14 | -16.87087 | 145.74782 | 8 ft | 15 kts | 335° |
| 2026-04-27 11:14 | -16.87066 | 145.74768 | 7 ft | 0 kts | 320° |
| 2026-04-27 11:14 | -16.87049 | 145.74740 | 6 ft | 10 kts | 286° |
| 2026-04-27 11:15 | -16.87057 | 145.74689 | 5 ft | 0 kts | 247° |
| 2026-04-27 11:16 | -16.87081 | 145.74639 | 4 ft | 15 kts | 232° |
| 2026-04-27 11:16 | -16.87154 | 145.74617 | 5 ft | 6 kts | 163° |
| 2026-04-27 11:16 | -16.87181 | 145.74627 | 5 ft | 0 kts | 156° |
| 2026-04-27 11:17 | -16.87197 | 145.74635 | 6 ft | 22 kts | 156° |
| 2026-04-27 11:17 | -16.87690 | 145.74853 | 12 ft | 128 kts | 156° |
| 2026-04-27 11:17 | -16.88661 | 145.75288 | 173 ft | 163 kts | 157° |
| 2026-04-27 11:18 | -16.89705 | 145.75779 | 564 ft | 168 kts | 156° |
| 2026-04-27 11:18 | -16.90788 | 145.76281 | 930 ft | 174 kts | 157° |
| 2026-04-27 11:18 | -16.91868 | 145.76891 | 1196 ft | 184 kts | 137° |
| 2026-04-27 11:18 | -16.92348 | 145.78165 | 1125 ft | 205 kts | 88° |
| 2026-04-27 11:19 | -16.91692 | 145.79443 | 1329 ft | 200 kts | 40° |
| 2026-04-27 11:19 | -16.90621 | 145.80263 | 1963 ft | 183 kts | 35° |
| 2026-04-27 11:19 | -16.89633 | 145.81030 | 2592 ft | 172 kts | 36° |
| 2026-04-27 11:19 | -16.88702 | 145.81761 | 3206 ft | 164 kts | 36° |
| 2026-04-27 11:20 | -16.87810 | 145.82461 | 3815 ft | 158 kts | 36° |
| 2026-04-27 11:20 | -16.86910 | 145.83171 | 4458 ft | 169 kts | 36° |
| 2026-04-27 11:20 | -16.85931 | 145.83941 | 5133 ft | 183 kts | 36° |
| 2026-04-27 11:20 | -16.84868 | 145.84775 | 5814 ft | 199 kts | 36° |
| 2026-04-27 11:21 | -16.83715 | 145.85679 | 6486 ft | 216 kts | 36° |
| 2026-04-27 11:21 | -16.82461 | 145.86659 | 7160 ft | 235 kts | 36° |
| 2026-04-27 11:21 | -16.81093 | 145.87728 | 7834 ft | 256 kts | 36° |
| 2026-04-27 11:21 | -16.79606 | 145.88891 | 8504 ft | 278 kts | 36° |
| 2026-04-27 11:22 | -16.78001 | 145.90143 | 9168 ft | 297 kts | 36° |
| 2026-04-27 11:22 | -16.76313 | 145.91481 | 9814 ft | 312 kts | 39° |
| 2026-04-27 11:22 | -16.74731 | 145.93113 | 10402 ft | 326 kts | 47° |
| 2026-04-27 11:22 | -16.73178 | 145.94851 | 11254 ft | 327 kts | 45° |
| 2026-04-27 11:23 | -16.71478 | 145.96403 | 12278 ft | 322 kts | 37° |
| 2026-04-27 11:23 | -16.69947 | 145.98127 | 12966 ft | 332 kts | 56° |
| 2026-04-27 11:23 | -16.68996 | 146.00427 | 12912 ft | 363 kts | 75° |
| 2026-04-27 11:23 | -16.68777 | 146.03148 | 12859 ft | 389 kts | 93° |
| 2026-04-27 11:24 | -16.69424 | 146.05801 | 14177 ft | 364 kts | 114° |
| 2026-04-27 11:24 | -16.70765 | 146.07924 | 15564 ft | 344 kts | 132° |
| 2026-04-27 11:24 | -16.72607 | 146.09507 | 16373 ft | 348 kts | 148° |
| 2026-04-27 11:24 | -16.74862 | 146.10551 | 16714 ft | 364 kts | 163° |
| 2026-04-27 11:25 | -16.77419 | 146.10992 | 16960 ft | 381 kts | 177° |
| 2026-04-27 11:25 | -16.80142 | 146.10900 | 16814 ft | 407 kts | 184° |
| 2026-04-27 11:25 | -16.83034 | 146.10637 | 17024 ft | 420 kts | 186° |
| 2026-04-27 11:25 | -16.85851 | 146.10210 | 18207 ft | 393 kts | 190° |
| 2026-04-27 11:26 | -16.88523 | 146.09727 | 18402 ft | 386 kts | 190° |
| 2026-04-27 11:26 | -16.91106 | 146.09222 | 18527 ft | 369 kts | 191° |
| 2026-04-27 11:26 | -16.93559 | 146.08702 | 18662 ft | 351 kts | 192° |
| 2026-04-27 11:26 | -16.95879 | 146.08149 | 18721 ft | 334 kts | 193° |
| 2026-04-27 11:27 | -16.98166 | 146.07794 | 18373 ft | 336 kts | 185° |
| 2026-04-27 11:27 | -17.00525 | 146.07526 | 18495 ft | 343 kts | 187° |
| 2026-04-27 11:27 | -17.02915 | 146.07170 | 19093 ft | 352 kts | 189° |
| 2026-04-27 11:27 | -17.05362 | 146.06710 | 19666 ft | 362 kts | 192° |
| 2026-04-27 11:28 | -17.07619 | 146.06126 | 21300 ft | 298 kts | 195° |
| 2026-04-27 11:28 | -17.09437 | 146.05573 | 21956 ft | 234 kts | 198° |
| 2026-04-27 11:28 | -17.10755 | 146.05159 | 23166 ft | 169 kts | 197° |
| 2026-04-27 11:28 | -17.11786 | 146.04787 | 23749 ft | 152 kts | 202° |
| 2026-04-27 11:29 | -17.12866 | 146.04269 | 23396 ft | 191 kts | 207° |
| 2026-04-27 11:29 | -17.14141 | 146.03553 | 23143 ft | 219 kts | 206° |
| 2026-04-27 11:29 | -17.15606 | 146.03188 | 23226 ft | 226 kts | 176° |
| 2026-04-27 11:29 | -17.17164 | 146.03651 | 23212 ft | 236 kts | 159° |
| 2026-04-27 11:30 | -17.18734 | 146.04259 | 23072 ft | 251 kts | 160° |
| 2026-04-27 11:30 | -17.20310 | 146.04895 | 23642 ft | 230 kts | 158° |
| 2026-04-27 11:30 | -17.21756 | 146.05523 | 24018 ft | 226 kts | 158° |
| 2026-04-27 11:30 | -17.23296 | 146.06150 | 23747 ft | 249 kts | 160° |
| 2026-04-27 11:31 | -17.24961 | 146.06744 | 23817 ft | 252 kts | 162° |
| 2026-04-27 11:31 | -17.26589 | 146.07239 | 24341 ft | 234 kts | 166° |
| 2026-04-27 11:31 | -17.28121 | 146.07657 | 24758 ft | 227 kts | 166° |
| 2026-04-27 11:31 | -17.29721 | 146.08077 | 24470 ft | 250 kts | 167° |
| 2026-04-27 11:32 | -17.31404 | 146.08513 | 24736 ft | 243 kts | 166° |
| 2026-04-27 11:32 | -17.32992 | 146.08987 | 25138 ft | 235 kts | 162° |
| 2026-04-27 11:32 | -17.34570 | 146.09593 | 24987 ft | 250 kts | 158° |
| 2026-04-27 11:32 | -17.36224 | 146.10327 | 24814 ft | 263 kts | 157° |
| 2026-04-27 11:33 | -17.37905 | 146.11096 | 24927 ft | 262 kts | 156° |
| 2026-04-27 11:33 | -17.39532 | 146.11872 | 25268 ft | 252 kts | 155° |
| 2026-04-27 11:33 | -17.41103 | 146.12600 | 25621 ft | 243 kts | 158° |
| 2026-04-27 11:33 | -17.42671 | 146.13286 | 25537 ft | 254 kts | 157° |
| 2026-04-27 11:34 | -17.44393 | 146.14065 | 25028 ft | 279 kts | 157° |
| 2026-04-27 11:34 | -17.46183 | 146.14817 | 25168 ft | 272 kts | 159° |
| 2026-04-27 11:34 | -17.47905 | 146.15529 | 25384 ft | 267 kts | 159° |